sensor_id;sensor_type;location;lat;lon;timestamp;P1;durP1;ratioP1;P2;durP2;ratioP2
28629;SDS011;15817;42.130;24.762;2023-03-03T00:02:11;35.45;;;23.70;;
28629;SDS011;15817;42.130;24.762;2023-03-03T00:04:40;44.05;;;22.67;;
28629;SDS011;15817;42.130;24.762;2023-03-03T00:07:10;41.33;;;24.80;;
28629;SDS011;15817;42.130;24.762;2023-03-03T00:09:36;48.25;;;23.83;;
28629;SDS011;15817;42.130;24.762;2023-03-03T00:12:10;42.90;;;25.10;;
28629;SDS011;15817;42.130;24.762;2023-03-03T00:14:46;40.28;;;25.90;;
28629;SDS011;15817;42.130;24.762;2023-03-03T00:17:14;38.28;;;24.55;;
28629;SDS011;15817;42.130;24.762;2023-03-03T00:19:56;39.35;;;24.25;;
28629;SDS011;15817;42.130;24.762;2023-03-03T00:22:29;42.90;;;24.25;;
28629;SDS011;15817;42.130;24.762;2023-03-03T00:27:54;41.05;;;23.90;;
28629;SDS011;15817;42.130;24.762;2023-03-03T00:30:27;38.58;;;23.73;;
28629;SDS011;15817;42.130;24.762;2023-03-03T00:32:53;48.70;;;26.60;;
28629;SDS011;15817;42.130;24.762;2023-03-03T00:35:24;54.08;;;27.08;;
28629;SDS011;15817;42.130;24.762;2023-03-03T00:38:00;49.15;;;26.00;;
28629;SDS011;15817;42.130;24.762;2023-03-03T00:40:45;47.35;;;26.63;;
28629;SDS011;15817;42.130;24.762;2023-03-03T00:43:25;45.80;;;25.55;;
28629;SDS011;15817;42.130;24.762;2023-03-03T00:45:58;46.15;;;25.45;;
28629;SDS011;15817;42.130;24.762;2023-03-03T00:50:58;50.95;;;24.02;;
28629;SDS011;15817;42.130;24.762;2023-03-03T00:53:29;44.03;;;24.33;;
28629;SDS011;15817;42.130;24.762;2023-03-03T00:55:55;43.08;;;22.83;;
28629;SDS011;15817;42.130;24.762;2023-03-03T00:58:22;39.75;;;22.70;;
28629;SDS011;15817;42.130;24.762;2023-03-03T01:00:52;48.38;;;23.77;;
28629;SDS011;15817;42.130;24.762;2023-03-03T01:03:24;39.45;;;23.08;;
28629;SDS011;15817;42.130;24.762;2023-03-03T01:05:54;43.50;;;23.83;;
28629;SDS011;15817;42.130;24.762;2023-03-03T01:08:21;41.97;;;23.23;;
28629;SDS011;15817;42.130;24.762;2023-03-03T01:10:47;40.88;;;24.20;;
28629;SDS011;15817;42.130;24.762;2023-03-03T01:13:18;45.13;;;24.15;;
28629;SDS011;15817;42.130;24.762;2023-03-03T01:15:48;42.90;;;23.77;;
28629;SDS011;15817;42.130;24.762;2023-03-03T01:18:14;39.00;;;23.08;;
28629;SDS011;15817;42.130;24.762;2023-03-03T01:20:40;46.08;;;22.42;;
28629;SDS011;15817;42.130;24.762;2023-03-03T01:23:10;49.28;;;24.40;;
28629;SDS011;15817;42.130;24.762;2023-03-03T01:25:36;42.47;;;23.33;;
28629;SDS011;15817;42.130;24.762;2023-03-03T01:28:03;39.53;;;23.95;;
28629;SDS011;15817;42.130;24.762;2023-03-03T01:30:30;46.42;;;22.92;;
28629;SDS011;15817;42.130;24.762;2023-03-03T01:32:55;45.42;;;23.50;;
28629;SDS011;15817;42.130;24.762;2023-03-03T01:35:22;43.03;;;24.23;;
28629;SDS011;15817;42.130;24.762;2023-03-03T01:37:49;39.42;;;23.35;;
28629;SDS011;15817;42.130;24.762;2023-03-03T01:40:17;43.42;;;23.17;;
28629;SDS011;15817;42.130;24.762;2023-03-03T01:42:47;41.08;;;23.73;;
28629;SDS011;15817;42.130;24.762;2023-03-03T01:45:15;44.45;;;22.15;;
28629;SDS011;15817;42.130;24.762;2023-03-03T01:47:51;39.33;;;23.45;;
28629;SDS011;15817;42.130;24.762;2023-03-03T01:53:14;44.35;;;23.25;;
28629;SDS011;15817;42.130;24.762;2023-03-03T01:55:43;36.10;;;20.83;;
28629;SDS011;15817;42.130;24.762;2023-03-03T01:58:12;45.70;;;22.98;;
28629;SDS011;15817;42.130;24.762;2023-03-03T02:00:43;38.35;;;23.23;;
28629;SDS011;15817;42.130;24.762;2023-03-03T02:03:14;40.60;;;23.30;;
28629;SDS011;15817;42.130;24.762;2023-03-03T02:05:41;36.20;;;22.63;;
28629;SDS011;15817;42.130;24.762;2023-03-03T02:08:11;45.63;;;23.85;;
28629;SDS011;15817;42.130;24.762;2023-03-03T02:10:44;39.63;;;22.30;;
28629;SDS011;15817;42.130;24.762;2023-03-03T02:13:10;41.25;;;23.73;;
28629;SDS011;15817;42.130;24.762;2023-03-03T02:15:36;36.58;;;22.23;;
28629;SDS011;15817;42.130;24.762;2023-03-03T02:18:06;37.60;;;21.90;;
28629;SDS011;15817;42.130;24.762;2023-03-03T02:23:17;38.75;;;21.90;;
28629;SDS011;15817;42.130;24.762;2023-03-03T02:26:11;37.42;;;22.10;;
28629;SDS011;15817;42.130;24.762;2023-03-03T02:28:40;42.25;;;22.83;;
28629;SDS011;15817;42.130;24.762;2023-03-03T02:31:12;39.10;;;22.13;;
28629;SDS011;15817;42.130;24.762;2023-03-03T02:33:42;36.17;;;22.27;;
28629;SDS011;15817;42.130;24.762;2023-03-03T02:36:17;37.20;;;22.05;;
28629;SDS011;15817;42.130;24.762;2023-03-03T02:38:48;37.33;;;22.13;;
28629;SDS011;15817;42.130;24.762;2023-03-03T02:44:12;41.28;;;23.35;;
28629;SDS011;15817;42.130;24.762;2023-03-03T02:46:43;38.30;;;22.58;;
28629;SDS011;15817;42.130;24.762;2023-03-03T02:49:12;38.58;;;23.73;;
28629;SDS011;15817;42.130;24.762;2023-03-03T02:51:40;37.67;;;21.83;;
28629;SDS011;15817;42.130;24.762;2023-03-03T02:54:07;40.28;;;24.30;;
28629;SDS011;15817;42.130;24.762;2023-03-03T02:56:35;46.85;;;24.75;;
28629;SDS011;15817;42.130;24.762;2023-03-03T02:59:02;38.40;;;23.05;;
28629;SDS011;15817;42.130;24.762;2023-03-03T03:01:33;39.40;;;22.95;;
28629;SDS011;15817;42.130;24.762;2023-03-03T03:04:16;43.33;;;23.88;;
28629;SDS011;15817;42.130;24.762;2023-03-03T03:06:47;38.15;;;23.38;;
28629;SDS011;15817;42.130;24.762;2023-03-03T03:09:14;37.78;;;22.17;;
28629;SDS011;15817;42.130;24.762;2023-03-03T03:11:42;42.65;;;23.10;;
28629;SDS011;15817;42.130;24.762;2023-03-03T03:14:09;35.53;;;21.63;;
28629;SDS011;15817;42.130;24.762;2023-03-03T03:16:38;34.60;;;22.45;;
28629;SDS011;15817;42.130;24.762;2023-03-03T03:19:07;39.38;;;22.60;;
28629;SDS011;15817;42.130;24.762;2023-03-03T03:21:38;37.78;;;22.55;;
28629;SDS011;15817;42.130;24.762;2023-03-03T03:24:05;40.30;;;22.75;;
28629;SDS011;15817;42.130;24.762;2023-03-03T03:26:32;35.13;;;22.65;;
28629;SDS011;15817;42.130;24.762;2023-03-03T03:28:58;40.88;;;23.13;;
28629;SDS011;15817;42.130;24.762;2023-03-03T03:31:24;39.88;;;25.20;;
28629;SDS011;15817;42.130;24.762;2023-03-03T03:33:50;37.38;;;24.08;;
28629;SDS011;15817;42.130;24.762;2023-03-03T03:36:18;42.30;;;24.17;;
28629;SDS011;15817;42.130;24.762;2023-03-03T03:38:44;44.28;;;24.70;;
28629;SDS011;15817;42.130;24.762;2023-03-03T03:41:10;46.60;;;24.42;;
28629;SDS011;15817;42.130;24.762;2023-03-03T03:43:37;37.75;;;23.40;;
28629;SDS011;15817;42.130;24.762;2023-03-03T03:46:03;47.85;;;24.67;;
28629;SDS011;15817;42.130;24.762;2023-03-03T03:48:32;45.42;;;24.35;;
28629;SDS011;15817;42.130;24.762;2023-03-03T03:51:04;44.42;;;25.42;;
28629;SDS011;15817;42.130;24.762;2023-03-03T03:53:32;42.47;;;25.80;;
28629;SDS011;15817;42.130;24.762;2023-03-03T03:55:58;40.47;;;25.67;;
28629;SDS011;15817;42.130;24.762;2023-03-03T03:58:26;46.13;;;26.60;;
28629;SDS011;15817;42.130;24.762;2023-03-03T04:01:03;42.72;;;25.83;;
28629;SDS011;15817;42.130;24.762;2023-03-03T04:03:34;49.67;;;28.65;;
28629;SDS011;15817;42.130;24.762;2023-03-03T04:06:03;52.28;;;29.75;;
28629;SDS011;15817;42.130;24.762;2023-03-03T04:08:35;50.60;;;28.63;;
28629;SDS011;15817;42.130;24.762;2023-03-03T04:11:04;42.65;;;27.52;;
28629;SDS011;15817;42.130;24.762;2023-03-03T04:13:32;45.50;;;27.70;;
28629;SDS011;15817;42.130;24.762;2023-03-03T04:16:00;50.35;;;26.55;;
28629;SDS011;15817;42.130;24.762;2023-03-03T04:18:27;42.80;;;25.83;;
28629;SDS011;15817;42.130;24.762;2023-03-03T04:21:41;47.10;;;27.08;;
28629;SDS011;15817;42.130;24.762;2023-03-03T04:24:07;46.63;;;26.60;;
28629;SDS011;15817;42.130;24.762;2023-03-03T04:26:43;40.05;;;25.23;;
28629;SDS011;15817;42.130;24.762;2023-03-03T04:29:10;41.97;;;25.33;;
28629;SDS011;15817;42.130;24.762;2023-03-03T04:31:38;43.90;;;25.60;;
28629;SDS011;15817;42.130;24.762;2023-03-03T04:34:10;44.72;;;24.80;;
28629;SDS011;15817;42.130;24.762;2023-03-03T04:36:37;45.88;;;25.15;;
28629;SDS011;15817;42.130;24.762;2023-03-03T04:39:03;48.78;;;26.92;;
28629;SDS011;15817;42.130;24.762;2023-03-03T04:41:32;45.10;;;26.48;;
28629;SDS011;15817;42.130;24.762;2023-03-03T04:43:58;44.63;;;24.13;;
28629;SDS011;15817;42.130;24.762;2023-03-03T04:46:31;44.78;;;25.38;;
28629;SDS011;15817;42.130;24.762;2023-03-03T04:48:57;42.97;;;24.95;;
28629;SDS011;15817;42.130;24.762;2023-03-03T04:51:25;46.80;;;25.52;;
28629;SDS011;15817;42.130;24.762;2023-03-03T04:53:54;47.05;;;26.10;;
28629;SDS011;15817;42.130;24.762;2023-03-03T04:56:20;40.20;;;25.65;;
28629;SDS011;15817;42.130;24.762;2023-03-03T04:58:47;42.00;;;24.98;;
28629;SDS011;15817;42.130;24.762;2023-03-03T05:01:13;43.20;;;27.00;;
28629;SDS011;15817;42.130;24.762;2023-03-03T05:03:39;43.90;;;27.23;;
28629;SDS011;15817;42.130;24.762;2023-03-03T05:06:11;42.42;;;25.33;;
28629;SDS011;15817;42.130;24.762;2023-03-03T05:08:40;45.30;;;27.13;;
28629;SDS011;15817;42.130;24.762;2023-03-03T05:11:09;45.80;;;27.20;;
28629;SDS011;15817;42.130;24.762;2023-03-03T05:13:40;50.65;;;27.60;;
28629;SDS011;15817;42.130;24.762;2023-03-03T05:16:10;41.55;;;26.02;;
28629;SDS011;15817;42.130;24.762;2023-03-03T05:18:36;43.92;;;28.20;;
28629;SDS011;15817;42.130;24.762;2023-03-03T05:21:02;48.80;;;28.33;;
28629;SDS011;15817;42.130;24.762;2023-03-03T05:23:28;44.05;;;26.67;;
28629;SDS011;15817;42.130;24.762;2023-03-03T05:25:55;46.22;;;27.45;;
28629;SDS011;15817;42.130;24.762;2023-03-03T05:28:21;47.67;;;28.10;;
28629;SDS011;15817;42.130;24.762;2023-03-03T05:30:47;41.00;;;26.25;;
28629;SDS011;15817;42.130;24.762;2023-03-03T05:33:16;41.55;;;27.48;;
28629;SDS011;15817;42.130;24.762;2023-03-03T05:35:42;44.33;;;27.17;;
28629;SDS011;15817;42.130;24.762;2023-03-03T05:38:08;47.22;;;30.13;;
28629;SDS011;15817;42.130;24.762;2023-03-03T05:40:34;45.47;;;27.60;;
28629;SDS011;15817;42.130;24.762;2023-03-03T05:43:03;42.50;;;25.77;;
28629;SDS011;15817;42.130;24.762;2023-03-03T05:45:29;41.40;;;25.02;;
28629;SDS011;15817;42.130;24.762;2023-03-03T05:47:57;40.90;;;26.13;;
28629;SDS011;15817;42.130;24.762;2023-03-03T05:50:23;41.35;;;24.52;;
28629;SDS011;15817;42.130;24.762;2023-03-03T05:52:49;40.75;;;25.42;;
28629;SDS011;15817;42.130;24.762;2023-03-03T05:55:16;41.50;;;25.20;;
28629;SDS011;15817;42.130;24.762;2023-03-03T05:57:43;37.13;;;24.58;;
28629;SDS011;15817;42.130;24.762;2023-03-03T06:00:18;39.40;;;24.60;;
28629;SDS011;15817;42.130;24.762;2023-03-03T06:02:44;38.65;;;24.02;;
28629;SDS011;15817;42.130;24.762;2023-03-03T06:05:10;38.38;;;23.23;;
28629;SDS011;15817;42.130;24.762;2023-03-03T06:07:47;42.30;;;25.13;;
28629;SDS011;15817;42.130;24.762;2023-03-03T06:10:17;48.67;;;27.05;;
28629;SDS011;15817;42.130;24.762;2023-03-03T06:12:51;39.33;;;25.45;;
28629;SDS011;15817;42.130;24.762;2023-03-03T06:15:16;45.00;;;28.38;;
28629;SDS011;15817;42.130;24.762;2023-03-03T06:17:42;40.03;;;25.45;;
28629;SDS011;15817;42.130;24.762;2023-03-03T06:20:08;34.85;;;23.50;;
28629;SDS011;15817;42.130;24.762;2023-03-03T06:22:34;34.60;;;21.92;;
28629;SDS011;15817;42.130;24.762;2023-03-03T06:25:00;34.10;;;21.80;;
28629;SDS011;15817;42.130;24.762;2023-03-03T06:27:26;36.67;;;21.83;;
28629;SDS011;15817;42.130;24.762;2023-03-03T06:29:52;34.78;;;21.75;;
28629;SDS011;15817;42.130;24.762;2023-03-03T06:32:18;36.42;;;21.17;;
28629;SDS011;15817;42.130;24.762;2023-03-03T06:34:46;33.13;;;20.90;;
28629;SDS011;15817;42.130;24.762;2023-03-03T06:37:13;33.35;;;20.33;;
28629;SDS011;15817;42.130;24.762;2023-03-03T06:39:49;33.70;;;21.17;;
28629;SDS011;15817;42.130;24.762;2023-03-03T06:42:16;33.58;;;20.65;;
28629;SDS011;15817;42.130;24.762;2023-03-03T06:44:44;32.90;;;20.48;;
28629;SDS011;15817;42.130;24.762;2023-03-03T06:47:09;33.38;;;22.23;;
28629;SDS011;15817;42.130;24.762;2023-03-03T06:49:35;34.90;;;21.90;;
28629;SDS011;15817;42.130;24.762;2023-03-03T06:52:13;35.38;;;22.17;;
28629;SDS011;15817;42.130;24.762;2023-03-03T06:54:49;37.40;;;21.80;;
28629;SDS011;15817;42.130;24.762;2023-03-03T06:57:21;33.15;;;22.20;;
28629;SDS011;15817;42.130;24.762;2023-03-03T06:59:53;34.55;;;22.35;;
28629;SDS011;15817;42.130;24.762;2023-03-03T07:02:24;33.47;;;22.35;;
28629;SDS011;15817;42.130;24.762;2023-03-03T07:04:53;34.80;;;23.05;;
28629;SDS011;15817;42.130;24.762;2023-03-03T07:07:22;30.80;;;21.25;;
28629;SDS011;15817;42.130;24.762;2023-03-03T07:09:53;33.55;;;23.05;;
28629;SDS011;15817;42.130;24.762;2023-03-03T07:12:22;40.38;;;23.13;;
28629;SDS011;15817;42.130;24.762;2023-03-03T07:18:01;34.80;;;21.98;;
28629;SDS011;15817;42.130;24.762;2023-03-03T07:20:54;31.92;;;21.17;;
28629;SDS011;15817;42.130;24.762;2023-03-03T07:23:56;34.03;;;20.90;;
28629;SDS011;15817;42.130;24.762;2023-03-03T07:26:28;33.88;;;20.50;;
28629;SDS011;15817;42.130;24.762;2023-03-03T07:29:18;29.92;;;21.00;;
28629;SDS011;15817;42.130;24.762;2023-03-03T07:31:52;31.70;;;21.35;;
28629;SDS011;15817;42.130;24.762;2023-03-03T07:34:35;34.40;;;22.55;;
28629;SDS011;15817;42.130;24.762;2023-03-03T07:37:28;30.13;;;21.23;;
28629;SDS011;15817;42.130;24.762;2023-03-03T07:40:35;27.75;;;19.95;;
28629;SDS011;15817;42.130;24.762;2023-03-03T07:43:25;25.48;;;16.75;;
28629;SDS011;15817;42.130;24.762;2023-03-03T07:49:15;28.00;;;17.92;;
28629;SDS011;15817;42.130;24.762;2023-03-03T07:52:01;23.83;;;15.65;;
28629;SDS011;15817;42.130;24.762;2023-03-03T07:55:16;28.75;;;17.35;;
28629;SDS011;15817;42.130;24.762;2023-03-03T08:03:57;22.88;;;14.63;;
28629;SDS011;15817;42.130;24.762;2023-03-03T08:14:40;24.42;;;14.82;;
28629;SDS011;15817;42.130;24.762;2023-03-03T08:17:20;24.52;;;16.05;;
28629;SDS011;15817;42.130;24.762;2023-03-03T08:19:55;31.38;;;15.38;;
28629;SDS011;15817;42.130;24.762;2023-03-03T08:22:37;25.52;;;14.48;;
28629;SDS011;15817;42.130;24.762;2023-03-03T08:25:08;27.20;;;14.63;;
28629;SDS011;15817;42.130;24.762;2023-03-03T08:27:50;22.58;;;14.90;;
28629;SDS011;15817;42.130;24.762;2023-03-03T08:30:19;33.45;;;16.52;;
28629;SDS011;15817;42.130;24.762;2023-03-03T08:32:45;28.75;;;17.40;;
28629;SDS011;15817;42.130;24.762;2023-03-03T08:35:13;26.65;;;17.00;;
28629;SDS011;15817;42.130;24.762;2023-03-03T08:37:38;26.35;;;16.50;;
28629;SDS011;15817;42.130;24.762;2023-03-03T08:40:12;25.52;;;16.23;;
28629;SDS011;15817;42.130;24.762;2023-03-03T08:42:41;24.35;;;16.80;;
28629;SDS011;15817;42.130;24.762;2023-03-03T08:45:09;24.20;;;15.20;;
28629;SDS011;15817;42.130;24.762;2023-03-03T08:47:35;30.45;;;15.88;;
28629;SDS011;15817;42.130;24.762;2023-03-03T08:50:01;27.67;;;17.25;;
28629;SDS011;15817;42.130;24.762;2023-03-03T08:52:36;23.42;;;15.65;;
28629;SDS011;15817;42.130;24.762;2023-03-03T08:55:02;26.35;;;15.88;;
28629;SDS011;15817;42.130;24.762;2023-03-03T08:57:31;30.20;;;16.23;;
28629;SDS011;15817;42.130;24.762;2023-03-03T08:59:59;23.98;;;14.95;;
28629;SDS011;15817;42.130;24.762;2023-03-03T09:02:25;26.83;;;15.55;;
28629;SDS011;15817;42.130;24.762;2023-03-03T09:04:57;27.52;;;16.85;;
28629;SDS011;15817;42.130;24.762;2023-03-03T09:07:25;28.20;;;17.33;;
28629;SDS011;15817;42.130;24.762;2023-03-03T09:09:51;30.55;;;17.88;;
28629;SDS011;15817;42.130;24.762;2023-03-03T09:12:40;27.13;;;17.70;;
28629;SDS011;15817;42.130;24.762;2023-03-03T09:15:40;30.92;;;17.50;;
28629;SDS011;15817;42.130;24.762;2023-03-03T09:19:14;25.13;;;16.67;;
28629;SDS011;15817;42.130;24.762;2023-03-03T09:22:45;30.08;;;17.83;;
28629;SDS011;15817;42.130;24.762;2023-03-03T09:25:26;28.73;;;16.80;;
28629;SDS011;15817;42.130;24.762;2023-03-03T09:28:43;25.85;;;16.27;;
28629;SDS011;15817;42.130;24.762;2023-03-03T09:31:33;28.05;;;17.20;;
28629;SDS011;15817;42.130;24.762;2023-03-03T09:47:13;23.95;;;15.23;;
28629;SDS011;15817;42.130;24.762;2023-03-03T09:52:51;25.40;;;15.65;;
28629;SDS011;15817;42.130;24.762;2023-03-03T09:58:21;22.92;;;14.38;;
28629;SDS011;15817;42.130;24.762;2023-03-03T10:00:53;22.85;;;15.20;;
28629;SDS011;15817;42.130;24.762;2023-03-03T10:03:52;22.08;;;14.18;;
28629;SDS011;15817;42.130;24.762;2023-03-03T10:18:24;24.75;;;15.57;;
28629;SDS011;15817;42.130;24.762;2023-03-03T10:21:01;27.48;;;15.43;;
28629;SDS011;15817;42.130;24.762;2023-03-03T10:26:37;24.25;;;16.75;;
28629;SDS011;15817;42.130;24.762;2023-03-03T10:29:18;23.65;;;17.55;;
28629;SDS011;15817;42.130;24.762;2023-03-03T10:40:32;29.95;;;18.40;;
28629;SDS011;15817;42.130;24.762;2023-03-03T10:50:33;28.63;;;18.70;;
28629;SDS011;15817;42.130;24.762;2023-03-03T11:04:45;26.77;;;18.40;;
28629;SDS011;15817;42.130;24.762;2023-03-03T11:13:32;29.00;;;17.02;;
28629;SDS011;15817;42.130;24.762;2023-03-03T11:21:48;26.10;;;17.33;;
28629;SDS011;15817;42.130;24.762;2023-03-03T11:32:39;27.17;;;18.20;;
28629;SDS011;15817;42.130;24.762;2023-03-03T11:35:15;28.05;;;17.77;;
28629;SDS011;15817;42.130;24.762;2023-03-03T11:40:52;25.50;;;18.13;;
28629;SDS011;15817;42.130;24.762;2023-03-03T11:43:29;31.30;;;18.20;;
28629;SDS011;15817;42.130;24.762;2023-03-03T11:49:38;27.60;;;19.50;;
28629;SDS011;15817;42.130;24.762;2023-03-03T11:55:08;26.30;;;19.30;;
28629;SDS011;15817;42.130;24.762;2023-03-03T12:00:51;27.25;;;19.40;;
28629;SDS011;15817;42.130;24.762;2023-03-03T12:12:14;21.35;;;15.85;;
28629;SDS011;15817;42.130;24.762;2023-03-03T12:18:24;32.00;;;19.55;;
28629;SDS011;15817;42.130;24.762;2023-03-03T12:33:55;43.28;;;27.70;;
28629;SDS011;15817;42.130;24.762;2023-03-03T12:39:29;21.08;;;14.48;;
28629;SDS011;15817;42.130;24.762;2023-03-03T12:46:21;17.92;;;13.68;;
28629;SDS011;15817;42.130;24.762;2023-03-03T12:49:09;19.67;;;12.55;;
28629;SDS011;15817;42.130;24.762;2023-03-03T12:57:55;24.45;;;14.45;;
28629;SDS011;15817;42.130;24.762;2023-03-03T13:09:24;20.92;;;14.15;;
28629;SDS011;15817;42.130;24.762;2023-03-03T13:41:03;19.38;;;13.75;;
28629;SDS011;15817;42.130;24.762;2023-03-03T13:57:53;17.05;;;11.95;;
28629;SDS011;15817;42.130;24.762;2023-03-03T14:00:50;18.58;;;12.23;;
28629;SDS011;15817;42.130;24.762;2023-03-03T14:03:39;15.45;;;11.10;;
28629;SDS011;15817;42.130;24.762;2023-03-03T14:06:24;16.45;;;12.10;;
28629;SDS011;15817;42.130;24.762;2023-03-03T14:20:51;15.40;;;11.45;;
28629;SDS011;15817;42.130;24.762;2023-03-03T14:23:40;18.75;;;12.82;;
28629;SDS011;15817;42.130;24.762;2023-03-03T14:26:17;15.75;;;11.10;;
28629;SDS011;15817;42.130;24.762;2023-03-03T14:28:46;14.15;;;11.40;;
28629;SDS011;15817;42.130;24.762;2023-03-03T14:31:24;21.98;;;11.90;;
28629;SDS011;15817;42.130;24.762;2023-03-03T14:34:14;21.33;;;12.45;;
28629;SDS011;15817;42.130;24.762;2023-03-03T14:36:57;21.08;;;11.32;;
28629;SDS011;15817;42.130;24.762;2023-03-03T14:39:42;15.77;;;11.07;;
28629;SDS011;15817;42.130;24.762;2023-03-03T14:42:30;13.68;;;10.98;;
28629;SDS011;15817;42.130;24.762;2023-03-03T14:48:15;17.90;;;10.63;;
28629;SDS011;15817;42.130;24.762;2023-03-03T15:07:57;13.20;;;10.05;;
28629;SDS011;15817;42.130;24.762;2023-03-03T15:10:07;18.52;;;9.50;;
28629;SDS011;15817;42.130;24.762;2023-03-03T15:24:52;10.15;;;7.68;;
28629;SDS011;15817;42.130;24.762;2023-03-03T15:37:08;11.23;;;8.15;;
28629;SDS011;15817;42.130;24.762;2023-03-03T15:40:34;10.93;;;8.07;;
28629;SDS011;15817;42.130;24.762;2023-03-03T15:43:27;9.40;;;8.38;;
28629;SDS011;15817;42.130;24.762;2023-03-03T15:49:10;9.77;;;8.20;;
28629;SDS011;15817;42.130;24.762;2023-03-03T15:51:46;11.38;;;9.20;;
28629;SDS011;15817;42.130;24.762;2023-03-03T15:54:43;12.10;;;8.70;;
28629;SDS011;15817;42.130;24.762;2023-03-03T16:02:48;11.05;;;8.77;;
28629;SDS011;15817;42.130;24.762;2023-03-03T16:27:34;17.77;;;10.07;;
28629;SDS011;15817;42.130;24.762;2023-03-03T16:41:50;14.70;;;11.35;;
28629;SDS011;15817;42.130;24.762;2023-03-03T16:45:03;15.40;;;11.43;;
28629;SDS011;15817;42.130;24.762;2023-03-03T17:05:24;15.70;;;9.57;;
28629;SDS011;15817;42.130;24.762;2023-03-03T17:11:23;15.43;;;9.73;;
28629;SDS011;15817;42.130;24.762;2023-03-03T17:17:15;17.83;;;10.45;;
28629;SDS011;15817;42.130;24.762;2023-03-03T17:20:31;15.65;;;11.45;;
28629;SDS011;15817;42.130;24.762;2023-03-03T17:25:50;18.30;;;12.15;;
28629;SDS011;15817;42.130;24.762;2023-03-03T17:28:35;16.70;;;11.88;;
28629;SDS011;15817;42.130;24.762;2023-03-03T17:37:06;15.55;;;10.95;;
28629;SDS011;15817;42.130;24.762;2023-03-03T17:45:09;20.30;;;13.27;;
28629;SDS011;15817;42.130;24.762;2023-03-03T17:56:18;28.65;;;18.85;;
28629;SDS011;15817;42.130;24.762;2023-03-03T17:58:55;28.90;;;19.73;;
28629;SDS011;15817;42.130;24.762;2023-03-03T18:01:56;36.13;;;21.45;;
28629;SDS011;15817;42.130;24.762;2023-03-03T18:07:34;32.45;;;21.95;;
28629;SDS011;15817;42.130;24.762;2023-03-03T18:11:06;32.97;;;20.67;;
28629;SDS011;15817;42.130;24.762;2023-03-03T18:14:17;36.17;;;21.63;;
28629;SDS011;15817;42.130;24.762;2023-03-03T18:17:00;31.50;;;21.70;;
28629;SDS011;15817;42.130;24.762;2023-03-03T18:23:24;37.38;;;24.20;;
28629;SDS011;15817;42.130;24.762;2023-03-03T18:26:01;37.42;;;25.45;;
28629;SDS011;15817;42.130;24.762;2023-03-03T18:28:49;41.55;;;26.55;;
28629;SDS011;15817;42.130;24.762;2023-03-03T18:33:59;40.45;;;24.30;;
28629;SDS011;15817;42.130;24.762;2023-03-03T18:36:50;35.88;;;23.67;;
28629;SDS011;15817;42.130;24.762;2023-03-03T18:42:55;35.65;;;24.30;;
28629;SDS011;15817;42.130;24.762;2023-03-03T18:48:13;35.65;;;23.55;;
28629;SDS011;15817;42.130;24.762;2023-03-03T18:50:46;37.30;;;24.88;;
28629;SDS011;15817;42.130;24.762;2023-03-03T18:53:20;34.75;;;23.60;;
28629;SDS011;15817;42.130;24.762;2023-03-03T18:55:57;40.85;;;26.13;;
28629;SDS011;15817;42.130;24.762;2023-03-03T18:58:35;36.40;;;24.55;;
28629;SDS011;15817;42.130;24.762;2023-03-03T19:12:17;34.70;;;24.35;;
28629;SDS011;15817;42.130;24.762;2023-03-03T19:14:47;37.25;;;25.05;;
28629;SDS011;15817;42.130;24.762;2023-03-03T19:23:15;37.05;;;25.67;;
28629;SDS011;15817;42.130;24.762;2023-03-03T19:34:41;39.08;;;26.23;;
28629;SDS011;15817;42.130;24.762;2023-03-03T19:40:21;41.42;;;26.40;;
28629;SDS011;15817;42.130;24.762;2023-03-03T19:43:08;40.67;;;26.25;;
28629;SDS011;15817;42.130;24.762;2023-03-03T19:51:58;45.00;;;27.10;;
28629;SDS011;15817;42.130;24.762;2023-03-03T20:35:35;50.92;;;33.67;;
28629;SDS011;15817;42.130;24.762;2023-03-03T20:52:33;49.97;;;31.33;;
28629;SDS011;15817;42.130;24.762;2023-03-03T20:55:15;47.22;;;30.83;;
28629;SDS011;15817;42.130;24.762;2023-03-03T20:58:43;46.63;;;30.30;;
28629;SDS011;15817;42.130;24.762;2023-03-03T21:02:04;44.67;;;29.65;;
28629;SDS011;15817;42.130;24.762;2023-03-03T21:08:10;49.15;;;30.35;;
28629;SDS011;15817;42.130;24.762;2023-03-03T21:10:41;55.95;;;32.85;;
28629;SDS011;15817;42.130;24.762;2023-03-03T21:13:52;57.45;;;33.13;;
28629;SDS011;15817;42.130;24.762;2023-03-03T21:16:37;56.63;;;33.58;;
28629;SDS011;15817;42.130;24.762;2023-03-03T21:19:06;54.65;;;33.33;;
28629;SDS011;15817;42.130;24.762;2023-03-03T21:21:44;59.58;;;32.45;;
28629;SDS011;15817;42.130;24.762;2023-03-03T21:27:30;45.92;;;32.28;;
28629;SDS011;15817;42.130;24.762;2023-03-03T21:30:19;58.20;;;36.17;;
28629;SDS011;15817;42.130;24.762;2023-03-03T21:33:06;55.08;;;34.53;;
28629;SDS011;15817;42.130;24.762;2023-03-03T21:44:54;54.85;;;35.25;;
28629;SDS011;15817;42.130;24.762;2023-03-03T21:48:06;55.33;;;34.33;;
28629;SDS011;15817;42.130;24.762;2023-03-03T21:50:58;52.47;;;34.95;;
28629;SDS011;15817;42.130;24.762;2023-03-03T21:53:24;64.25;;;35.63;;
28629;SDS011;15817;42.130;24.762;2023-03-03T21:55:52;54.55;;;35.05;;
28629;SDS011;15817;42.130;24.762;2023-03-03T21:58:23;59.35;;;37.03;;
28629;SDS011;15817;42.130;24.762;2023-03-03T22:01:28;56.35;;;36.03;;
28629;SDS011;15817;42.130;24.762;2023-03-03T22:03:56;57.22;;;35.58;;
28629;SDS011;15817;42.130;24.762;2023-03-03T22:06:25;54.58;;;36.10;;
28629;SDS011;15817;42.130;24.762;2023-03-03T22:14:56;59.65;;;37.67;;
28629;SDS011;15817;42.130;24.762;2023-03-03T22:17:25;62.70;;;36.67;;
28629;SDS011;15817;42.130;24.762;2023-03-03T22:20:00;61.33;;;37.13;;
28629;SDS011;15817;42.130;24.762;2023-03-03T22:22:29;65.68;;;37.90;;
28629;SDS011;15817;42.130;24.762;2023-03-03T22:24:55;61.05;;;37.58;;
28629;SDS011;15817;42.130;24.762;2023-03-03T22:27:32;61.38;;;37.20;;
28629;SDS011;15817;42.130;24.762;2023-03-03T22:30:04;59.10;;;38.22;;
28629;SDS011;15817;42.130;24.762;2023-03-03T22:32:48;61.03;;;37.38;;
28629;SDS011;15817;42.130;24.762;2023-03-03T22:35:19;61.72;;;37.40;;
28629;SDS011;15817;42.130;24.762;2023-03-03T22:37:46;55.33;;;37.03;;
28629;SDS011;15817;42.130;24.762;2023-03-03T22:40:27;57.22;;;37.10;;
28629;SDS011;15817;42.130;24.762;2023-03-03T22:42:52;60.08;;;38.50;;
28629;SDS011;15817;42.130;24.762;2023-03-03T22:45:23;48.85;;;32.50;;
28629;SDS011;15817;42.130;24.762;2023-03-03T22:47:52;52.55;;;31.63;;
28629;SDS011;15817;42.130;24.762;2023-03-03T22:50:18;58.88;;;34.05;;
28629;SDS011;15817;42.130;24.762;2023-03-03T22:52:46;58.33;;;34.67;;
28629;SDS011;15817;42.130;24.762;2023-03-03T22:55:24;54.80;;;34.47;;
28629;SDS011;15817;42.130;24.762;2023-03-03T22:57:53;58.22;;;35.83;;
28629;SDS011;15817;42.130;24.762;2023-03-03T23:00:19;57.72;;;37.80;;
28629;SDS011;15817;42.130;24.762;2023-03-03T23:02:51;60.85;;;40.90;;
28629;SDS011;15817;42.130;24.762;2023-03-03T23:05:20;67.25;;;42.15;;